Corinth Corners, Vermont
Current Conditions -  °F | °C
As of 11:51 AM on Thursday 23 Oct 2014 (Local Time) from KMPV Reporting Station
Overcast Overcast  
Wind Chill: 39°   Ceiling: 1000
Heat Index: 43°   Visibility: 10mi
Dew Point: 41°   Wind: 7mph
Humidity: 93%   Direction: 360°N
Pressure: 29.94"   Gusts: NA
Location:  44.0361°N, 72.2949°W
Report Text: KMPV 231551Z AUTO 36006KT 10SM OVC010 06/05 A2994 RMK AO2 RAE08 CIG 008V014 SLP147 P0000 T00610050
Loading
Personal Weather Stations






























Interactive Weather Map New forecast layout! Learn more

10-Day Weather Forecast

Advertisements
Track Severe Weather on mobile